Time;durP1;ratioP1;P1;durP2;ratioP2;P2;SDS_P1;SDS_P2;PMS_P1;PMS_P2;Temp;Humidity;BMP_temperature;BMP_pressure;BME280_temperature;BME280_humidity;BME280_pressure;Samples;Min_cycle;Max_cycle;Signal;HPM_P1;HPM_P2
2022/09/17 00:00:40;;;;;;;0.10;0.10;;;11.70;99.90;;;;;;5052964;28;20266;-60
2022/09/17 00:03:07;;;;;;;0.00;0.00;;;11.70;99.90;;;;;;5052815;28;20179;-59
2022/09/17 00:05:36;;;;;;;0.00;0.00;;;11.70;99.90;;;;;;5054806;28;20202;-60
2022/09/17 00:08:04;;;;;;;1.35;0.32;;;11.60;99.90;;;;;;5056333;28;20514;-60
2022/09/17 00:10:31;;;;;;;0.20;0.20;;;11.60;99.90;;;;;;5056312;28;20568;-59
2022/09/17 00:12:56;;;;;;;0.30;0.10;;;11.70;99.90;;;;;;5056318;28;20183;-60
2022/09/17 00:15:22;;;;;;;0.40;0.20;;;11.70;99.90;;;;;;5056455;28;20656;-60
2022/09/17 00:17:57;;;;;;;0.20;0.20;;;11.70;99.90;;;;;;5056401;28;20218;-60
2022/09/17 00:20:26;;;;;;;0.55;0.55;;;11.70;99.90;;;;;;5056568;28;20170;-59
2022/09/17 00:22:52;;;;;;;1.20;0.50;;;11.70;99.90;;;;;;5056229;28;20270;-60
2022/09/17 00:25:19;;;;;;;4.63;1.00;;;11.70;99.90;;;;;;5056025;28;20661;-60
2022/09/17 00:27:45;;;;;;;0.82;0.40;;;11.70;99.90;;;;;;5055270;28;20183;-60
2022/09/17 00:30:12;;;;;;;0.10;0.10;;;11.70;99.90;;;;;;5056272;28;20172;-60
2022/09/17 00:32:37;;;;;;;0.10;0.10;;;11.70;99.90;;;;;;5056382;28;20262;-60
2022/09/17 00:35:04;;;;;;;0.28;0.10;;;11.70;99.90;;;;;;5054704;28;20222;-60
2022/09/17 00:37:29;;;;;;;0.10;0.10;;;11.60;99.90;;;;;;5055914;28;20193;-59
2022/09/17 00:39:55;;;;;;;0.10;0.10;;;11.60;99.90;;;;;;5055777;28;20632;-60
2022/09/17 00:42:22;;;;;;;0.45;0.45;;;11.60;99.90;;;;;;5055898;28;20518;-60
2022/09/17 00:44:54;;;;;;;0.20;0.20;;;11.60;99.90;;;;;;5055570;28;20203;-60
2022/09/17 00:47:32;;;;;;;0.10;0.10;;;11.60;99.90;;;;;;5055855;28;20650;-60
2022/09/17 00:50:10;;;;;;;0.75;0.43;;;11.70;99.90;;;;;;5055852;28;20293;-60
2022/09/17 00:52:45;;;;;;;0.10;0.10;;;11.60;99.90;;;;;;5055621;28;20175;-60
2022/09/17 00:55:39;;;;;;;0.10;0.10;;;11.60;99.90;;;;;;5055786;28;20178;-60
2022/09/17 00:58:14;;;;;;;0.10;0.10;;;11.60;99.90;;;;;;5050274;28;20191;-60
2022/09/17 01:00:40;;;;;;;0.65;0.10;;;11.70;99.90;;;;;;5054294;28;20270;-60
2022/09/17 01:03:06;;;;;;;0.22;0.10;;;11.70;99.90;;;;;;5055538;28;20175;-59
2022/09/17 01:05:53;;;;;;;0.75;0.30;;;11.60;99.90;;;;;;5055313;28;20211;-60
2022/09/17 01:08:19;;;;;;;0.10;0.10;;;11.60;99.90;;;;;;5054073;28;20181;-59
2022/09/17 01:10:51;;;;;;;1.02;0.13;;;11.50;99.90;;;;;;5055655;28;20254;-60
2022/09/17 01:13:34;;;;;;;0.10;0.10;;;11.60;99.90;;;;;;5055142;28;20171;-61
2022/09/17 01:16:03;;;;;;;0.68;0.55;;;11.60;99.90;;;;;;5055447;28;20202;-60
2022/09/17 01:18:36;;;;;;;0.52;0.47;;;11.60;99.90;;;;;;5055216;28;20633;-60
2022/09/17 01:21:42;;;;;;;0.17;0.17;;;11.60;99.90;;;;;;5055263;28;20171;-60
2022/09/17 01:24:17;;;;;;;0.57;0.40;;;11.60;99.90;;;;;;5055031;28;20171;-60
2022/09/17 01:26:54;;;;;;;0.55;0.08;;;11.60;99.90;;;;;;5055045;28;20262;-60
2022/09/17 01:29:34;;;;;;;0.20;0.15;;;11.70;99.90;;;;;;5055113;28;20250;-59
2022/09/17 01:32:14;;;;;;;0.00;0.00;;;11.70;99.90;;;;;;5055065;28;20259;-60
2022/09/17 01:34:50;;;;;;;0.10;0.05;;;11.70;99.90;;;;;;5055575;28;20227;-60
2022/09/17 01:37:46;;;;;;;0.35;0.10;;;11.70;99.90;;;;;;5054884;28;20683;-60
2022/09/17 01:40:12;;;;;;;0.52;0.38;;;11.70;99.90;;;;;;5054696;28;20252;-60
2022/09/17 01:42:43;;;;;;;0.68;0.40;;;11.80;99.90;;;;;;5054816;28;20250;-60
2022/09/17 01:45:14;;;;;;;0.80;0.50;;;11.80;99.90;;;;;;5054758;28;20218;-61
2022/09/17 01:47:53;;;;;;;0.82;0.45;;;11.80;99.90;;;;;;5054885;28;20183;-59
2022/09/17 01:50:28;;;;;;;0.55;0.43;;;11.70;99.90;;;;;;5054715;28;20167;-61
2022/09/17 01:52:55;;;;;;;0.13;0.13;;;11.80;99.90;;;;;;5054547;28;20571;-59
2022/09/17 01:55:24;;;;;;;0.93;0.22;;;11.70;99.90;;;;;;5054551;28;20187;-60
2022/09/17 01:57:57;;;;;;;0.43;0.20;;;11.60;99.90;;;;;;5054798;28;20254;-60
2022/09/17 02:00:23;;;;;;;0.00;0.00;;;11.60;99.90;;;;;;5054818;28;20174;-60
2022/09/17 02:02:52;;;;;;;0.90;0.43;;;11.60;99.90;;;;;;5054514;28;20182;-60
2022/09/17 02:05:48;;;;;;;0.40;0.40;;;11.50;99.90;;;;;;5054204;28;20595;-59
2022/09/17 02:08:24;;;;;;;0.80;0.55;;;11.40;99.90;;;;;;5054405;28;20208;-60
2022/09/17 02:10:56;;;;;;;0.50;0.30;;;11.40;99.90;;;;;;5054140;28;20178;-60
2022/09/17 02:13:51;;;;;;;0.28;0.10;;;11.50;99.90;;;;;;5054130;28;20167;-60
2022/09/17 02:16:34;;;;;;;0.50;0.50;;;11.50;99.90;;;;;;5054283;28;20278;-60
2022/09/17 02:19:18;;;;;;;0.35;0.30;;;11.60;99.90;;;;;;5054155;28;20593;-60
2022/09/17 02:21:58;;;;;;;0.68;0.28;;;11.60;99.90;;;;;;5053887;28;20174;-60
2022/09/17 02:25:03;;;;;;;0.20;0.10;;;11.60;99.90;;;;;;5054032;28;20168;-60
2022/09/17 02:27:51;;;;;;;0.10;0.10;;;11.70;99.90;;;;;;5052730;28;20305;-60
2022/09/17 02:30:17;;;;;;;0.17;0.17;;;11.70;99.90;;;;;;5053731;28;20214;-60
2022/09/17 02:32:43;;;;;;;1.88;0.30;;;11.70;99.90;;;;;;5053977;28;20232;-60
2022/09/17 02:35:12;;;;;;;0.20;0.10;;;11.50;99.90;;;;;;5053806;28;20182;-60
2022/09/17 02:37:39;;;;;;;0.82;0.20;;;11.50;99.90;;;;;;5053691;28;20249;-60
2022/09/17 02:40:06;;;;;;;0.25;0.10;;;11.50;99.90;;;;;;5053696;28;20171;-60
2022/09/17 02:42:50;;;;;;;0.90;0.22;;;11.40;99.90;;;;;;5053602;28;20176;-60
2022/09/17 02:45:37;;;;;;;0.13;0.03;;;11.40;99.90;;;;;;5053716;28;20213;-60
2022/09/17 02:48:31;;;;;;;0.25;0.20;;;11.40;99.90;;;;;;5053608;28;20538;-60
2022/09/17 02:51:22;;;;;;;0.35;0.22;;;11.30;99.90;;;;;;5053334;28;20325;-60
2022/09/17 02:54:16;;;;;;;0.22;0.10;;;11.30;99.90;;;;;;5053712;28;20171;-60
2022/09/17 02:56:45;;;;;;;0.22;0.20;;;11.30;99.90;;;;;;5053605;28;20258;-60
2022/09/17 02:59:41;;;;;;;0.80;0.22;;;11.30;99.90;;;;;;5053409;28;20679;-60
2022/09/17 03:02:13;;;;;;;0.65;0.08;;;11.30;99.90;;;;;;5053571;28;20176;-60
2022/09/17 03:04:40;;;;;;;0.45;0.20;;;11.20;99.90;;;;;;5053268;28;20246;-60
2022/09/17 03:07:10;;;;;;;0.10;0.10;;;11.20;99.90;;;;;;5053273;28;20270;-59
2022/09/17 03:09:37;;;;;;;0.63;0.40;;;11.20;99.90;;;;;;5053275;28;20221;-59
2022/09/17 03:12:03;;;;;;;0.17;0.17;;;11.10;99.90;;;;;;5053360;28;20171;-60
2022/09/17 03:14:29;;;;;;;0.93;0.30;;;11.00;99.90;;;;;;5052969;28;20187;-60
2022/09/17 03:16:55;;;;;;;1.38;0.30;;;11.00;99.90;;;;;;5053408;28;20179;-59
2022/09/17 03:19:20;;;;;;;0.25;0.20;;;11.10;99.90;;;;;;5052077;28;20186;-60
2022/09/17 03:21:46;;;;;;;0.20;0.20;;;11.10;99.90;;;;;;5053186;28;20258;-60
2022/09/17 03:24:12;;;;;;;0.38;0.20;;;11.10;99.90;;;;;;5053159;28;20167;-60
2022/09/17 03:26:38;;;;;;;0.40;0.40;;;11.10;99.90;;;;;;5052739;28;20203;-60
2022/09/17 03:29:04;;;;;;;0.20;0.10;;;11.10;99.90;;;;;;5053174;28;20171;-60
2022/09/17 03:31:29;;;;;;;2.15;0.55;;;11.00;99.90;;;;;;5053140;28;20175;-59
2022/09/17 03:33:55;;;;;;;0.55;0.35;;;11.00;99.90;;;;;;5052977;28;20306;-59
2022/09/17 03:36:21;;;;;;;0.90;0.43;;;11.10;99.90;;;;;;5053052;28;20233;-59
2022/09/17 03:38:46;;;;;;;1.10;0.63;;;11.00;99.90;;;;;;5053222;28;20179;-60
2022/09/17 03:41:12;;;;;;;0.30;0.30;;;11.00;99.90;;;;;;5056829;28;20175;-60
2022/09/17 03:43:38;;;;;;;1.13;0.52;;;10.90;99.90;;;;;;5056993;28;20632;-60
2022/09/17 03:46:04;;;;;;;0.60;0.60;;;10.90;99.90;;;;;;5056944;28;20672;-61
2022/09/17 03:48:31;;;;;;;0.40;0.40;;;10.90;99.90;;;;;;5056873;28;20179;-59
2022/09/17 03:50:57;;;;;;;0.93;0.93;;;10.90;99.90;;;;;;5056690;28;20698;-60
2022/09/17 03:53:22;;;;;;;0.30;0.30;;;10.90;99.90;;;;;;5056755;28;20186;-60
2022/09/17 03:55:49;;;;;;;0.75;0.30;;;10.90;99.90;;;;;;5055324;28;20183;-60
2022/09/17 03:58:14;;;;;;;0.75;0.60;;;10.90;99.90;;;;;;5056778;28;20536;-60
2022/09/17 04:00:40;;;;;;;1.02;0.93;;;10.80;99.90;;;;;;5056682;28;20176;-60
2022/09/17 04:03:06;;;;;;;0.85;0.50;;;10.80;99.90;;;;;;5056503;28;20183;-59
2022/09/17 04:05:32;;;;;;;0.40;0.30;;;10.70;99.90;;;;;;5056617;28;20324;-60
2022/09/17 04:07:58;;;;;;;0.88;0.55;;;10.80;99.90;;;;;;5056416;28;20201;-60
2022/09/17 04:10:24;;;;;;;0.52;0.52;;;10.80;99.90;;;;;;5056303;28;20637;-60
2022/09/17 04:12:49;;;;;;;1.65;0.40;;;10.80;99.90;;;;;;5056837;28;20281;-60
2022/09/17 04:15:15;;;;;;;1.63;0.60;;;10.80;99.90;;;;;;5056064;28;20199;-60
2022/09/17 04:17:41;;;;;;;0.60;0.60;;;10.80;99.90;;;;;;5055081;28;20201;-60
2022/09/17 04:20:07;;;;;;;0.40;0.40;;;10.70;99.90;;;;;;5056278;28;20167;-59
2022/09/17 04:22:33;;;;;;;0.60;0.60;;;10.80;99.90;;;;;;5056200;28;20171;-59
2022/09/17 04:24:58;;;;;;;0.75;0.47;;;10.70;99.90;;;;;;5056050;28;20213;-60
2022/09/17 04:27:24;;;;;;;1.17;1.00;;;10.70;99.90;;;;;;5056288;28;20254;-60
2022/09/17 04:29:50;;;;;;;0.47;0.40;;;10.60;99.90;;;;;;5038316;28;20179;-60
2022/09/17 04:32:16;;;;;;;0.73;0.73;;;10.60;99.90;;;;;;5054824;28;20625;-60
2022/09/17 04:34:41;;;;;;;1.45;0.32;;;10.60;99.90;;;;;;5055961;28;20197;-59
2022/09/17 04:37:07;;;;;;;1.45;0.50;;;10.50;99.90;;;;;;5055955;28;20656;-60
2022/09/17 04:39:33;;;;;;;0.55;0.50;;;10.40;99.90;;;;;;5054446;28;20187;-60
2022/09/17 04:41:59;;;;;;;0.73;0.70;;;10.40;99.90;;;;;;5055948;28;20182;-60
2022/09/17 04:44:24;;;;;;;0.80;0.45;;;10.40;99.90;;;;;;5055858;28;20175;-60
2022/09/17 04:46:50;;;;;;;0.32;0.30;;;10.50;99.90;;;;;;5055823;28;20518;-60
2022/09/17 04:49:16;;;;;;;0.65;0.45;;;10.40;99.90;;;;;;5055569;28;20182;-60
2022/09/17 04:51:41;;;;;;;0.47;0.35;;;10.50;99.90;;;;;;5055261;28;20208;-59
2022/09/17 04:54:07;;;;;;;0.47;0.43;;;10.40;99.90;;;;;;5055467;28;20209;-60
2022/09/17 04:56:33;;;;;;;0.50;0.40;;;10.50;99.90;;;;;;5055900;28;20220;-60
2022/09/17 04:58:59;;;;;;;0.47;0.45;;;10.50;99.90;;;;;;5055636;28;20198;-60
2022/09/17 05:01:24;;;;;;;0.50;0.50;;;10.50;99.90;;;;;;5054536;28;20637;-60
2022/09/17 05:03:50;;;;;;;0.40;0.40;;;10.60;99.90;;;;;;5055450;28;20198;-60
2022/09/17 05:06:15;;;;;;;1.65;0.55;;;10.60;99.90;;;;;;5055384;28;20692;-60
2022/09/17 05:08:41;;;;;;;1.00;0.60;;;10.70;99.90;;;;;;5055488;28;20656;-59
2022/09/17 05:11:07;;;;;;;0.50;0.38;;;10.80;99.90;;;;;;5055600;28;20629;-59
2022/09/17 05:13:32;;;;;;;1.45;0.43;;;10.80;99.90;;;;;;5055375;28;20636;-60
2022/09/17 05:15:58;;;;;;;0.30;0.30;;;10.80;99.90;;;;;;5055217;28;20227;-59
2022/09/17 05:18:24;;;;;;;0.40;0.40;;;10.80;99.90;;;;;;5055467;28;20175;-60
2022/09/17 05:20:50;;;;;;;0.38;0.38;;;10.80;99.90;;;;;;5055040;28;20274;-60
2022/09/17 05:23:17;;;;;;;0.20;0.20;;;10.90;99.90;;;;;;5053826;28;20175;-59
2022/09/17 05:25:42;;;;;;;0.13;0.13;;;11.10;99.90;;;;;;5055025;28;20243;-59
2022/09/17 05:28:08;;;;;;;0.32;0.32;;;11.00;99.90;;;;;;5054790;28;20652;-59
2022/09/17 05:30:34;;;;;;;0.47;0.47;;;11.10;99.90;;;;;;5054541;28;20179;-59
2022/09/17 05:33:02;;;;;;;0.10;0.10;;;11.10;99.90;;;;;;5054734;28;20184;-59
2022/09/17 05:35:28;;;;;;;0.40;0.40;;;11.10;99.90;;;;;;5053614;28;20556;-60
2022/09/17 05:38:02;;;;;;;0.43;0.22;;;11.10;99.90;;;;;;5054921;28;20629;-59
2022/09/17 05:40:29;;;;;;;1.55;0.45;;;11.10;99.90;;;;;;5054813;28;20180;-59
2022/09/17 05:42:58;;;;;;;0.38;0.25;;;11.00;99.90;;;;;;5054660;28;20202;-59
2022/09/17 05:45:24;;;;;;;0.30;0.30;;;11.20;99.90;;;;;;5054416;28;20691;-58
2022/09/17 05:47:57;;;;;;;1.13;0.57;;;11.20;99.90;;;;;;5054481;28;20183;-59
2022/09/17 05:50:24;;;;;;;0.17;0.17;;;11.20;99.90;;;;;;5036517;28;20620;-59
2022/09/17 05:52:51;;;;;;;0.45;0.10;;;11.30;99.90;;;;;;5054504;28;20179;-59
2022/09/17 05:55:17;;;;;;;0.32;0.20;;;11.40;99.90;;;;;;5053199;28;20206;-59
2022/09/17 05:57:43;;;;;;;0.25;0.15;;;11.40;99.90;;;;;;5054366;28;20517;-59
2022/09/17 06:00:10;;;;;;;0.10;0.10;;;11.40;99.90;;;;;;5054338;28;20194;-59
2022/09/17 06:02:36;;;;;;;0.50;0.43;;;11.30;99.90;;;;;;5053267;28;20178;-60
2022/09/17 06:05:03;;;;;;;0.20;0.20;;;11.30;99.90;;;;;;5054025;28;20208;-60
2022/09/17 06:07:29;;;;;;;0.10;0.10;;;11.30;99.90;;;;;;5053365;28;20203;-59
2022/09/17 06:09:54;;;;;;;0.15;0.15;;;11.40;99.90;;;;;;5053831;28;20221;-60
2022/09/17 06:12:20;;;;;;;0.10;0.10;;;11.40;99.90;;;;;;5054000;28;20175;-57
2022/09/17 06:14:46;;;;;;;0.10;0.10;;;11.50;99.90;;;;;;5054190;28;20214;-60
2022/09/17 06:17:12;;;;;;;0.20;0.20;;;11.40;99.90;;;;;;5053758;28;20637;-59
2022/09/17 06:19:37;;;;;;;0.65;0.10;;;11.50;99.90;;;;;;5052764;28;20172;-59
2022/09/17 06:22:04;;;;;;;0.20;0.20;;;11.60;99.90;;;;;;5051719;28;20194;-60
2022/09/17 06:24:31;;;;;;;0.35;0.20;;;11.70;99.90;;;;;;5052672;28;20175;-59
2022/09/17 06:26:57;;;;;;;0.32;0.22;;;11.80;99.90;;;;;;5053540;28;20194;-59
2022/09/17 06:29:23;;;;;;;0.45;0.20;;;11.80;99.90;;;;;;5053152;28;20198;-60
2022/09/17 06:31:50;;;;;;;0.05;0.05;;;11.80;99.90;;;;;;5052356;28;20167;-59
2022/09/17 06:34:16;;;;;;;0.45;0.28;;;12.00;99.90;;;;;;5052207;28;20728;-60
2022/09/17 06:36:42;;;;;;;0.10;0.10;;;12.00;99.90;;;;;;5053128;28;20183;-60
2022/09/17 06:39:10;;;;;;;0.15;0.15;;;12.00;99.90;;;;;;5053768;28;20533;-59
2022/09/17 06:41:36;;;;;;;0.43;0.20;;;12.10;99.90;;;;;;5052174;28;20183;-59
2022/09/17 06:44:03;;;;;;;0.68;0.68;;;12.00;99.90;;;;;;5053323;28;20187;-60
2022/09/17 06:46:29;;;;;;;0.68;0.38;;;12.10;99.90;;;;;;5052933;28;20631;-59
2022/09/17 06:48:54;;;;;;;0.85;0.30;;;12.10;99.90;;;;;;5051780;28;20223;-59
2022/09/17 06:51:21;;;;;;;0.50;0.45;;;12.10;99.90;;;;;;5051136;28;20190;-56
2022/09/17 06:53:47;;;;;;;0.22;0.22;;;12.10;99.90;;;;;;5053031;28;20178;-59
2022/09/17 06:56:13;;;;;;;0.40;0.20;;;12.10;99.90;;;;;;5053224;28;20655;-60
2022/09/17 06:58:42;;;;;;;0.20;0.20;;;12.20;99.90;;;;;;5053073;28;20171;-59
2022/09/17 07:01:10;;;;;;;0.40;0.40;;;12.20;99.90;;;;;;5053003;28;20183;-60
2022/09/17 07:03:36;;;;;;;0.30;0.30;;;12.20;99.90;;;;;;5052180;28;20184;-59
2022/09/17 07:06:02;;;;;;;0.35;0.35;;;12.30;99.90;;;;;;5053102;28;20211;-59
2022/09/17 07:08:28;;;;;;;1.02;0.35;;;12.30;99.90;;;;;;5052535;28;20624;-59
2022/09/17 07:10:57;;;;;;;0.60;0.20;;;12.40;99.90;;;;;;5051767;28;20225;-59
2022/09/17 07:13:24;;;;;;;0.50;0.32;;;12.40;99.90;;;;;;5051058;28;20175;-59
2022/09/17 07:15:58;;;;;;;0.95;0.20;;;12.40;99.90;;;;;;5052742;28;20245;-59
2022/09/17 07:18:24;;;;;;;0.30;0.10;;;12.40;99.90;;;;;;5052650;28;20178;-59
2022/09/17 07:21:01;;;;;;;0.22;0.22;;;12.40;99.90;;;;;;5052524;28;20179;-60
2022/09/17 07:23:29;;;;;;;0.65;0.38;;;12.50;99.90;;;;;;5052776;28;20225;-59
2022/09/17 07:25:57;;;;;;;0.30;0.10;;;12.60;99.90;;;;;;5052391;28;20209;-59
2022/09/17 07:28:24;;;;;;;0.68;0.35;;;12.60;99.90;;;;;;5053129;28;20502;-60
2022/09/17 07:30:51;;;;;;;0.30;0.30;;;12.90;99.90;;;;;;5053164;28;20183;-59
2022/09/17 07:33:22;;;;;;;0.57;0.25;;;12.90;99.90;;;;;;5053241;28;20176;-63
2022/09/17 07:35:58;;;;;;;0.40;0.40;;;13.00;99.90;;;;;;5052849;28;20542;-60
2022/09/17 07:38:26;;;;;;;0.32;0.32;;;12.90;99.90;;;;;;5052841;28;20232;-60
2022/09/17 07:41:03;;;;;;;0.10;0.10;;;12.80;99.90;;;;;;5052706;28;20575;-59
2022/09/17 07:43:34;;;;;;;0.60;0.50;;;12.70;99.90;;;;;;5052968;28;20163;-59
2022/09/17 07:46:02;;;;;;;0.55;0.10;;;12.70;99.90;;;;;;5052889;28;20293;-60
2022/09/17 07:48:29;;;;;;;0.10;0.10;;;12.60;99.90;;;;;;5052251;28;20529;-60
2022/09/17 07:50:55;;;;;;;0.52;0.20;;;12.60;99.90;;;;;;5051300;28;20233;-57
2022/09/17 07:53:21;;;;;;;0.28;0.22;;;12.50;99.90;;;;;;5052970;28;20202;-60
2022/09/17 07:55:55;;;;;;;0.40;0.40;;;12.60;99.90;;;;;;5053133;28;20316;-60
2022/09/17 07:58:22;;;;;;;0.55;0.30;;;12.60;99.90;;;;;;5052944;28;20179;-60
2022/09/17 08:00:48;;;;;;;0.28;0.28;;;12.50;99.90;;;;;;5052810;28;20180;-60
2022/09/17 08:03:13;;;;;;;0.70;0.45;;;12.40;99.90;;;;;;5052649;28;20179;-59
2022/09/17 08:05:39;;;;;;;0.20;0.15;;;12.30;99.90;;;;;;5051403;28;20202;-59
2022/09/17 08:08:05;;;;;;;0.00;0.00;;;12.50;99.90;;;;;;5052834;28;20218;-60
2022/09/17 08:10:31;;;;;;;0.50;0.30;;;12.70;99.90;;;;;;5052783;28;20175;-60
2022/09/17 08:12:57;;;;;;;1.08;0.60;;;12.80;99.90;;;;;;5052620;28;20175;-60
2022/09/17 08:15:24;;;;;;;0.32;0.20;;;12.90;99.90;;;;;;5052377;28;20195;-60
2022/09/17 08:17:50;;;;;;;1.85;0.40;;;13.00;99.90;;;;;;5052567;28;20175;-60
2022/09/17 08:20:17;;;;;;;0.13;0.13;;;13.10;99.90;;;;;;5052530;28;20656;-60
2022/09/17 08:22:43;;;;;;;0.43;0.20;;;13.00;99.90;;;;;;5052642;28;20625;-60
2022/09/17 08:25:10;;;;;;;0.10;0.05;;;13.00;99.90;;;;;;5053475;28;20195;-60
2022/09/17 08:27:39;;;;;;;0.52;0.17;;;13.00;99.90;;;;;;5056098;28;20545;-60
2022/09/17 08:30:06;;;;;;;0.30;0.20;;;13.20;99.90;;;;;;5056152;28;20172;-61
2022/09/17 08:32:33;;;;;;;0.63;0.30;;;13.30;99.90;;;;;;5055978;28;20171;-60
2022/09/17 08:34:58;;;;;;;0.20;0.20;;;13.20;99.90;;;;;;5053818;28;20179;-62
2022/09/17 08:37:25;;;;;;;0.20;0.20;;;13.30;99.90;;;;;;5053711;28;20262;-63
2022/09/17 08:39:51;;;;;;;0.43;0.10;;;13.10;99.90;;;;;;5055858;28;20728;-62
2022/09/17 08:42:40;;;;;;;0.30;0.30;;;12.80;99.90;;;;;;5038092;28;20211;-62
2022/09/17 08:45:13;;;;;;;0.30;0.30;;;12.70;99.90;;;;;;5056175;28;20281;-62
2022/09/17 08:47:44;;;;;;;0.00;0.00;;;12.70;99.90;;;;;;5055968;28;20180;-62
2022/09/17 08:50:28;;;;;;;1.48;0.20;;;12.80;99.90;;;;;;5055390;28;20172;-62
2022/09/17 08:53:12;;;;;;;0.08;0.00;;;13.00;99.90;;;;;;5054346;28;20171;-62
2022/09/17 08:56:06;;;;;;;0.55;0.55;;;13.10;99.90;;;;;;5055509;28;20179;-62
2022/09/17 08:58:55;;;;;;;0.65;0.32;;;13.10;99.90;;;;;;5055749;28;20167;-62
2022/09/17 09:01:27;;;;;;;0.00;0.00;;;13.40;99.90;;;;;;5055490;28;20678;-61
2022/09/17 09:04:04;;;;;;;1.55;0.10;;;13.80;99.90;;;;;;5055185;28;20176;-62
2022/09/17 09:06:46;;;;;;;1.45;0.08;;;14.00;99.90;;;;;;5055476;28;20207;-62
2022/09/17 09:09:19;;;;;;;0.30;0.10;;;13.90;99.90;;;;;;5055474;28;20625;-62
2022/09/17 09:11:48;;;;;;;0.00;0.00;;;13.90;99.90;;;;;;5055373;28;20634;-62
2022/09/17 09:14:39;;;;;;;0.08;0.00;;;14.00;99.90;;;;;;5053797;28;20232;-61
2022/09/17 09:17:08;;;;;;;0.35;0.10;;;13.80;99.90;;;;;;5054150;28;20718;-62
2022/09/17 09:19:43;;;;;;;0.13;0.13;;;13.60;99.90;;;;;;5055236;28;20575;-62
2022/09/17 09:22:23;;;;;;;0.57;0.10;;;13.60;99.90;;;;;;5053921;28;20202;-62
2022/09/17 09:25:04;;;;;;;0.50;0.10;;;13.40;99.90;;;;;;5054942;28;20182;-61
2022/09/17 09:27:40;;;;;;;0.38;0.38;;;13.30;99.90;;;;;;5055016;28;20170;-62
2022/09/17 09:30:10;;;;;;;0.10;0.00;;;13.20;99.90;;;;;;5054857;28;20178;-62
2022/09/17 09:32:53;;;;;;;0.30;0.28;;;13.20;99.90;;;;;;5054545;28;20644;-62
2022/09/17 09:35:27;;;;;;;0.35;0.30;;;13.20;99.90;;;;;;5054344;28;20179;-62
2022/09/17 09:38:02;;;;;;;0.68;0.43;;;13.30;99.90;;;;;;5054510;28;20250;-62
2022/09/17 09:40:57;;;;;;;0.20;0.10;;;13.40;99.90;;;;;;5054762;28;20167;-62
2022/09/17 09:43:50;;;;;;;0.43;0.22;;;13.30;99.90;;;;;;5052144;28;20183;-62
2022/09/17 09:46:38;;;;;;;0.13;0.10;;;13.40;99.90;;;;;;5054232;28;20571;-61
2022/09/17 09:49:39;;;;;;;0.03;0.03;;;13.80;99.90;;;;;;5054534;28;20171;-62
2022/09/17 09:52:49;;;;;;;0.10;0.10;;;13.90;99.90;;;;;;5047506;28;20182;-62
2022/09/17 09:55:18;;;;;;;0.60;0.60;;;13.90;99.90;;;;;;5054252;28;20179;-61
2022/09/17 09:57:57;;;;;;;0.20;0.10;;;13.70;99.90;;;;;;5054268;28;20178;-61
2022/09/17 10:00:46;;;;;;;0.10;0.10;;;13.40;99.90;;;;;;5053876;28;20178;-61
2022/09/17 10:03:44;;;;;;;0.60;0.60;;;13.20;99.90;;;;;;5051852;28;20593;-61
2022/09/17 10:06:12;;;;;;;0.00;0.00;;;13.00;99.90;;;;;;5047610;28;20219;-62
2022/09/17 10:09:00;;;;;;;0.28;0.17;;;13.00;99.90;;;;;;5052097;28;20262;-62
2022/09/17 10:11:29;;;;;;;0.00;0.00;;;13.00;99.90;;;;;;5048832;28;20191;-62
2022/09/17 10:14:26;;;;;;;0.10;0.10;;;12.90;99.90;;;;;;5051909;28;20171;-62
2022/09/17 10:17:23;;;;;;;0.00;0.00;;;13.20;99.90;;;;;;5053096;28;20652;-62
2022/09/17 10:19:58;;;;;;;0.55;0.22;;;13.60;99.90;;;;;;5054194;28;20261;-60
2022/09/17 10:22:30;;;;;;;0.30;0.20;;;14.00;99.90;;;;;;5052704;28;20535;-62
2022/09/17 10:24:58;;;;;;;0.15;0.15;;;14.20;99.90;;;;;;5052568;28;20171;-62
2022/09/17 10:27:25;;;;;;;0.00;0.00;;;14.30;99.90;;;;;;5052576;28;20271;-62
2022/09/17 10:30:16;;;;;;;0.25;0.17;;;14.40;99.90;;;;;;5052824;28;20625;-62
2022/09/17 10:32:42;;;;;;;0.10;0.10;;;14.50;99.90;;;;;;5053855;28;20636;-62
2022/09/17 10:35:14;;;;;;;0.00;0.00;;;14.50;99.90;;;;;;5053874;28;20187;-62
2022/09/17 10:37:50;;;;;;;0.30;0.20;;;14.60;99.90;;;;;;5053603;28;20684;-62
2022/09/17 10:40:18;;;;;;;0.10;0.03;;;14.50;99.90;;;;;;5053915;28;20250;-62
2022/09/17 10:42:49;;;;;;;1.17;0.20;;;14.30;99.90;;;;;;5053710;28;20233;-62
2022/09/17 10:45:28;;;;;;;0.10;0.10;;;14.30;99.90;;;;;;5052933;28;20205;-62
2022/09/17 10:47:56;;;;;;;1.45;0.22;;;14.10;99.90;;;;;;5052986;28;20179;-61
2022/09/17 10:50:27;;;;;;;0.52;0.10;;;14.00;99.90;;;;;;5052241;28;20174;-62
2022/09/17 10:52:56;;;;;;;0.50;0.45;;;13.70;99.90;;;;;;5053648;28;20531;-62
2022/09/17 10:55:32;;;;;;;0.75;0.52;;;13.40;99.90;;;;;;5053424;28;20182;-62
2022/09/17 10:58:06;;;;;;;0.85;0.40;;;13.10;99.90;;;;;;5053440;28;20195;-62
2022/09/17 11:00:44;;;;;;;0.15;0.15;;;12.80;99.90;;;;;;5053215;28;20186;-62
2022/09/17 11:03:23;;;;;;;0.60;0.43;;;12.70;99.90;;;;;;5053482;28;20204;-62
2022/09/17 11:06:21;;;;;;;0.20;0.20;;;12.70;99.90;;;;;;5053322;28;20214;-62
2022/09/17 11:09:04;;;;;;;0.17;0.17;;;12.80;99.90;;;;;;5034207;28;20193;-62
2022/09/17 11:11:49;;;;;;;0.22;0.17;;;13.10;99.90;;;;;;5052203;28;20183;-62
2022/09/17 11:14:36;;;;;;;0.10;0.10;;;13.40;99.90;;;;;;5053214;28;20262;-62
2022/09/17 11:17:31;;;;;;;0.25;0.25;;;13.70;99.90;;;;;;5053131;28;20168;-62
2022/09/17 11:20:03;;;;;;;0.30;0.30;;;13.90;99.90;;;;;;5053395;28;20217;-62
2022/09/17 11:22:56;;;;;;;0.30;0.30;;;14.30;99.90;;;;;;5053304;28;20182;-62
2022/09/17 11:25:52;;;;;;;0.20;0.20;;;14.60;99.90;;;;;;5053081;28;20206;-62
2022/09/17 11:28:26;;;;;;;0.68;0.28;;;14.60;99.90;;;;;;5053022;28;20209;-62
2022/09/17 11:31:27;;;;;;;0.68;0.30;;;14.50;99.90;;;;;;5053025;28;20571;-62
2022/09/17 11:34:22;;;;;;;0.28;0.22;;;14.50;99.90;;;;;;5051743;28;20640;-62
2022/09/17 11:36:56;;;;;;;0.10;0.10;;;14.50;99.90;;;;;;5053000;28;20179;-62
2022/09/17 11:39:33;;;;;;;0.15;0.15;;;14.60;99.90;;;;;;5053051;28;20205;-62
2022/09/17 11:42:02;;;;;;;0.28;0.28;;;14.80;99.90;;;;;;5051747;28;20265;-62
2022/09/17 11:44:37;;;;;;;0.45;0.20;;;15.00;99.90;;;;;;5052756;28;20629;-62
2022/09/17 11:47:23;;;;;;;1.27;0.52;;;15.20;99.90;;;;;;5052836;28;20202;-62
2022/09/17 11:50:06;;;;;;;0.32;0.17;;;15.40;99.90;;;;;;5051743;28;20171;-61
2022/09/17 11:52:42;;;;;;;0.20;0.20;;;15.50;99.90;;;;;;5052884;28;20648;-62
2022/09/17 11:55:27;;;;;;;0.75;0.45;;;15.40;99.90;;;;;;5053064;28;20189;-62
2022/09/17 11:58:01;;;;;;;0.65;0.10;;;15.50;99.90;;;;;;5052834;28;20198;-62
2022/09/17 12:00:30;;;;;;;0.28;0.10;;;15.70;99.90;;;;;;5054199;28;20213;-62
2022/09/17 12:03:24;;;;;;;0.70;0.40;;;15.70;99.90;;;;;;5056640;28;20200;-62
2022/09/17 12:06:02;;;;;;;0.17;0.17;;;15.70;99.90;;;;;;5046153;28;20234;-61
2022/09/17 12:08:58;;;;;;;2.63;0.68;;;15.90;99.90;;;;;;5056571;28;20210;-62
2022/09/17 12:11:35;;;;;;;0.10;0.10;;;15.70;99.90;;;;;;5056440;28;20171;-62
2022/09/17 12:14:08;;;;;;;0.32;0.30;;;15.30;99.90;;;;;;5056532;28;20205;-61
2022/09/17 12:16:42;;;;;;;0.30;0.30;;;14.90;99.90;;;;;;5056379;28;20179;-62
2022/09/17 12:19:24;;;;;;;0.50;0.32;;;14.50;99.90;;;;;;5056434;28;20568;-62
2022/09/17 12:22:11;;;;;;;0.30;0.20;;;14.20;99.90;;;;;;5055964;28;20211;-61
2022/09/17 12:24:38;;;;;;;1.83;0.17;;;13.80;99.90;;;;;;5056338;28;20167;-62
2022/09/17 12:27:09;;;;;;;0.20;0.20;;;13.70;99.90;;;;;;5055012;28;20222;-61
2022/09/17 12:29:53;;;;;;;1.92;0.68;;;13.80;99.90;;;;;;5055768;28;20572;-61
2022/09/17 12:32:51;;;;;;;1.83;1.10;;;14.10;99.90;;;;;;5055961;28;20171;-61
2022/09/17 12:35:49;;;;;;;1.55;0.73;;;14.30;99.90;;;;;;5056255;28;20183;-61
2022/09/17 12:38:34;;;;;;;2.38;0.40;;;14.40;99.90;;;;;;5019823;28;20722;-62
2022/09/17 12:41:18;;;;;;;0.47;0.40;;;14.50;99.90;;;;;;5056182;28;20167;-61
2022/09/17 12:44:11;;;;;;;1.17;0.45;;;14.60;99.90;;;;;;5054686;28;20226;-61
2022/09/17 12:46:39;;;;;;;1.55;0.55;;;14.80;99.90;;;;;;5055685;28;20211;-61
2022/09/17 12:49:42;;;;;;;0.15;0.15;;;15.10;99.90;;;;;;5055307;28;20226;-61
2022/09/17 12:52:51;;;;;;;0.40;0.40;;;15.20;99.90;;;;;;5055124;28;20175;-60
2022/09/17 12:55:33;;;;;;;0.75;0.40;;;15.40;99.90;;;;;;5046522;28;20194;-61
2022/09/17 12:58:24;;;;;;;0.93;0.40;;;15.50;99.90;;;;;;5041707;28;20179;-61
2022/09/17 13:01:05;;;;;;;2.30;0.60;;;15.20;99.90;;;;;;5055100;28;20198;-61
2022/09/17 13:03:49;;;;;;;0.68;0.68;;;15.00;99.90;;;;;;5055252;28;20659;-61
2022/09/17 13:06:53;;;;;;;0.38;0.38;;;15.00;99.90;;;;;;5055009;28;20211;-61
2022/09/17 13:09:41;;;;;;;1.83;0.73;;;14.80;99.90;;;;;;5054564;28;20178;-61
2022/09/17 13:12:13;;;;;;;0.30;0.30;;;14.80;99.90;;;;;;5054751;28;20221;-61
2022/09/17 13:14:47;;;;;;;1.23;0.32;;;14.50;99.90;;;;;;5053382;28;20191;-60
2022/09/17 13:17:32;;;;;;;0.30;0.30;;;14.50;99.90;;;;;;5055203;28;20204;-61
2022/09/17 13:20:04;;;;;;;0.63;0.30;;;14.60;99.90;;;;;;5055236;28;20264;-61